Mabscott, West Virginia
Current Conditions -  °F | °C
As of 10:51 PM on Thursday 27 Nov 2014 (Local Time) from KBKW Reporting Station
Light Snow Light Snow  
Wind Chill: 16°   Ceiling: 1000
Heat Index: 25°   Visibility: 2.5mi
Dew Point: 21°   Wind: 9mph
Humidity: 85%   Direction: 290°WNW
Pressure: 30.23"   Gusts: NA
Location:  37.77°N, 81.21°W
Report Text: KBKW 280351Z AUTO 29008KT 2 1/2SM -SN BR BKN010 BKN018 OVC024 M04/M06 A3023 RMK AO2 SLP270 P0000 T10391061
Loading
Personal Weather Stations






























Interactive Weather Map New forecast layout! Learn more

10-Day Weather Forecast

Advertisements
Track Severe Weather on mobile